Ashland, Nebraska
Current Conditions -  °F | °C
As of 9:35 PM on Thursday 18 Dec 2014 (Local Time) from KMLE Reporting Station
Overcast Overcast  
Wind Chill: 25°   Ceiling: 1300
Heat Index: 31°   Visibility: 10mi
Dew Point: 27°   Wind: 6mph
Humidity: 86%   Direction: 150°SSE
Pressure: 30.23"   Gusts: NA
Location:  41.04°N, 96.37°W
Report Text: KMLE 190335Z AUTO 15005KT 10SM BKN013 OVC037 00/M03 A3023 RMK AO2 T10051026
Loading
Personal Weather Stations






























Interactive Weather Map New forecast layout! Learn more

10-Day Weather Forecast

Advertisements
Track Severe Weather on mobile